sensor_id;sensor_type;location;lat;lon;timestamp;P1;durP1;ratioP1;P2;durP2;ratioP2
15764;SDS011;7983;50.744;7.086;2022-09-09T00:09:36;1.30;;;0.60;;
15764;SDS011;7983;50.744;7.086;2022-09-09T00:12:12;1.42;;;0.60;;
15764;SDS011;7983;50.744;7.086;2022-09-09T00:14:59;1.42;;;0.50;;
15764;SDS011;7983;50.744;7.086;2022-09-09T00:17:45;1.00;;;0.60;;
15764;SDS011;7983;50.744;7.086;2022-09-09T00:25:59;1.75;;;0.70;;
15764;SDS011;7983;50.744;7.086;2022-09-09T00:28:45;2.40;;;0.75;;
15764;SDS011;7983;50.744;7.086;2022-09-09T00:31:23;1.30;;;0.60;;
15764;SDS011;7983;50.744;7.086;2022-09-09T00:33:53;2.72;;;0.90;;
15764;SDS011;7983;50.744;7.086;2022-09-09T00:36:24;2.65;;;1.00;;
15764;SDS011;7983;50.744;7.086;2022-09-09T00:38:58;1.70;;;0.73;;
15764;SDS011;7983;50.744;7.086;2022-09-09T00:41:29;2.65;;;0.90;;
15764;SDS011;7983;50.744;7.086;2022-09-09T00:52:43;1.10;;;0.77;;
15764;SDS011;7983;50.744;7.086;2022-09-09T00:57:53;1.55;;;0.63;;
15764;SDS011;7983;50.744;7.086;2022-09-09T01:00:20;2.20;;;0.77;;
15764;SDS011;7983;50.744;7.086;2022-09-09T01:17:24;1.95;;;0.88;;
15764;SDS011;7983;50.744;7.086;2022-09-09T01:20:13;1.65;;;0.80;;
15764;SDS011;7983;50.744;7.086;2022-09-09T01:23:01;1.35;;;1.15;;
15764;SDS011;7983;50.744;7.086;2022-09-09T01:28:16;3.10;;;1.00;;
15764;SDS011;7983;50.744;7.086;2022-09-09T01:30:49;1.52;;;0.80;;
15764;SDS011;7983;50.744;7.086;2022-09-09T01:33:17;1.88;;;0.90;;
15764;SDS011;7983;50.744;7.086;2022-09-09T01:39:19;2.35;;;1.00;;
15764;SDS011;7983;50.744;7.086;2022-09-09T01:41:48;1.25;;;0.68;;
15764;SDS011;7983;50.744;7.086;2022-09-09T01:44:16;2.22;;;0.90;;
15764;SDS011;7983;50.744;7.086;2022-09-09T01:46:43;1.38;;;0.68;;
15764;SDS011;7983;50.744;7.086;2022-09-09T01:49:08;2.20;;;0.90;;
15764;SDS011;7983;50.744;7.086;2022-09-09T01:51:37;2.22;;;1.00;;
15764;SDS011;7983;50.744;7.086;2022-09-09T01:54:06;2.05;;;0.80;;
15764;SDS011;7983;50.744;7.086;2022-09-09T01:59:20;3.00;;;0.98;;
15764;SDS011;7983;50.744;7.086;2022-09-09T02:04:26;2.55;;;0.80;;
15764;SDS011;7983;50.744;7.086;2022-09-09T02:07:06;0.90;;;0.60;;
15764;SDS011;7983;50.744;7.086;2022-09-09T02:09:39;2.45;;;1.00;;
15764;SDS011;7983;50.744;7.086;2022-09-09T02:12:13;3.97;;;1.10;;
15764;SDS011;7983;50.744;7.086;2022-09-09T02:14:54;1.80;;;1.00;;
15764;SDS011;7983;50.744;7.086;2022-09-09T02:17:31;1.50;;;0.80;;
15764;SDS011;7983;50.744;7.086;2022-09-09T02:20:06;1.60;;;0.77;;
15764;SDS011;7983;50.744;7.086;2022-09-09T02:22:34;4.13;;;0.90;;
15764;SDS011;7983;50.744;7.086;2022-09-09T02:25:05;3.67;;;0.90;;
15764;SDS011;7983;50.744;7.086;2022-09-09T02:27:33;1.13;;;0.85;;
15764;SDS011;7983;50.744;7.086;2022-09-09T02:30:00;2.85;;;0.82;;
15764;SDS011;7983;50.744;7.086;2022-09-09T02:32:29;2.47;;;0.90;;
15764;SDS011;7983;50.744;7.086;2022-09-09T02:35:03;2.70;;;0.90;;
15764;SDS011;7983;50.744;7.086;2022-09-09T02:37:35;2.35;;;0.90;;
15764;SDS011;7983;50.744;7.086;2022-09-09T02:40:03;1.80;;;0.80;;
15764;SDS011;7983;50.744;7.086;2022-09-09T02:42:38;2.90;;;0.85;;
15764;SDS011;7983;50.744;7.086;2022-09-09T02:45:08;2.45;;;0.80;;
15764;SDS011;7983;50.744;7.086;2022-09-09T02:47:48;3.65;;;1.17;;
15764;SDS011;7983;50.744;7.086;2022-09-09T02:50:28;1.67;;;0.70;;
15764;SDS011;7983;50.744;7.086;2022-09-09T02:55:29;2.70;;;0.80;;
15764;SDS011;7983;50.744;7.086;2022-09-09T02:58:08;1.75;;;0.90;;
15764;SDS011;7983;50.744;7.086;2022-09-09T03:00:37;1.95;;;0.70;;
15764;SDS011;7983;50.744;7.086;2022-09-09T03:03:07;2.05;;;0.85;;
15764;SDS011;7983;50.744;7.086;2022-09-09T03:05:36;4.35;;;1.05;;
15764;SDS011;7983;50.744;7.086;2022-09-09T03:08:03;1.33;;;0.75;;
15764;SDS011;7983;50.744;7.086;2022-09-09T03:10:30;2.95;;;0.77;;
15764;SDS011;7983;50.744;7.086;2022-09-09T03:12:57;1.67;;;0.77;;
15764;SDS011;7983;50.744;7.086;2022-09-09T03:15:25;4.70;;;0.95;;
15764;SDS011;7983;50.744;7.086;2022-09-09T03:17:54;1.20;;;0.75;;
15764;SDS011;7983;50.744;7.086;2022-09-09T03:20:20;1.55;;;0.75;;
15764;SDS011;7983;50.744;7.086;2022-09-09T03:22:46;4.07;;;1.10;;
15764;SDS011;7983;50.744;7.086;2022-09-09T03:25:14;1.45;;;0.60;;
15764;SDS011;7983;50.744;7.086;2022-09-09T03:27:39;3.28;;;1.17;;
15764;SDS011;7983;50.744;7.086;2022-09-09T03:30:05;1.55;;;0.60;;
15764;SDS011;7983;50.744;7.086;2022-09-09T03:32:34;1.63;;;0.80;;
15764;SDS011;7983;50.744;7.086;2022-09-09T03:35:00;2.53;;;1.10;;
15764;SDS011;7983;50.744;7.086;2022-09-09T03:37:25;1.15;;;0.60;;
15764;SDS011;7983;50.744;7.086;2022-09-09T03:39:51;2.15;;;0.80;;
15764;SDS011;7983;50.744;7.086;2022-09-09T03:42:19;3.72;;;1.08;;
15764;SDS011;7983;50.744;7.086;2022-09-09T03:44:50;2.80;;;1.00;;
15764;SDS011;7983;50.744;7.086;2022-09-09T03:47:20;1.65;;;0.80;;
15764;SDS011;7983;50.744;7.086;2022-09-09T03:49:49;3.05;;;0.90;;
15764;SDS011;7983;50.744;7.086;2022-09-09T03:52:15;2.88;;;1.30;;
15764;SDS011;7983;50.744;7.086;2022-09-09T03:54:41;2.13;;;0.80;;
15764;SDS011;7983;50.744;7.086;2022-09-09T03:57:07;2.85;;;0.85;;
15764;SDS011;7983;50.744;7.086;2022-09-09T03:59:38;1.80;;;0.73;;
15764;SDS011;7983;50.744;7.086;2022-09-09T04:02:06;1.58;;;0.90;;
15764;SDS011;7983;50.744;7.086;2022-09-09T04:04:32;3.10;;;0.85;;
15764;SDS011;7983;50.744;7.086;2022-09-09T04:07:02;1.67;;;0.70;;
15764;SDS011;7983;50.744;7.086;2022-09-09T04:09:31;3.95;;;1.23;;
15764;SDS011;7983;50.744;7.086;2022-09-09T04:11:57;2.50;;;1.00;;
15764;SDS011;7983;50.744;7.086;2022-09-09T04:14:25;2.88;;;0.80;;
15764;SDS011;7983;50.744;7.086;2022-09-09T04:16:53;1.98;;;1.00;;
15764;SDS011;7983;50.744;7.086;2022-09-09T04:19:20;2.63;;;0.88;;
15764;SDS011;7983;50.744;7.086;2022-09-09T04:21:48;2.13;;;0.88;;
15764;SDS011;7983;50.744;7.086;2022-09-09T04:24:16;3.50;;;1.25;;
15764;SDS011;7983;50.744;7.086;2022-09-09T04:26:46;1.80;;;1.00;;
15764;SDS011;7983;50.744;7.086;2022-09-09T04:29:12;1.67;;;0.88;;
15764;SDS011;7983;50.744;7.086;2022-09-09T04:31:37;1.20;;;0.70;;
15764;SDS011;7983;50.744;7.086;2022-09-09T04:34:09;2.80;;;0.82;;
15764;SDS011;7983;50.744;7.086;2022-09-09T04:36:37;3.50;;;1.00;;
15764;SDS011;7983;50.744;7.086;2022-09-09T04:39:04;2.22;;;0.80;;
15764;SDS011;7983;50.744;7.086;2022-09-09T04:41:29;2.83;;;1.08;;
15764;SDS011;7983;50.744;7.086;2022-09-09T04:43:58;2.40;;;0.82;;
15764;SDS011;7983;50.744;7.086;2022-09-09T04:46:26;2.50;;;1.10;;
15764;SDS011;7983;50.744;7.086;2022-09-09T04:48:54;2.60;;;0.90;;
15764;SDS011;7983;50.744;7.086;2022-09-09T04:51:20;2.53;;;1.10;;
15764;SDS011;7983;50.744;7.086;2022-09-09T04:53:48;1.50;;;0.70;;
15764;SDS011;7983;50.744;7.086;2022-09-09T04:56:19;3.22;;;1.00;;
15764;SDS011;7983;50.744;7.086;2022-09-09T04:58:45;1.98;;;0.80;;
15764;SDS011;7983;50.744;7.086;2022-09-09T05:03:40;3.10;;;1.00;;
15764;SDS011;7983;50.744;7.086;2022-09-09T05:06:11;2.50;;;0.70;;
15764;SDS011;7983;50.744;7.086;2022-09-09T05:08:44;1.63;;;0.90;;
15764;SDS011;7983;50.744;7.086;2022-09-09T05:11:21;2.33;;;0.80;;
15764;SDS011;7983;50.744;7.086;2022-09-09T05:13:51;2.05;;;0.98;;
15764;SDS011;7983;50.744;7.086;2022-09-09T05:16:18;4.30;;;1.00;;
15764;SDS011;7983;50.744;7.086;2022-09-09T05:18:52;1.77;;;0.80;;
15764;SDS011;7983;50.744;7.086;2022-09-09T05:21:19;1.10;;;0.70;;
15764;SDS011;7983;50.744;7.086;2022-09-09T05:23:46;3.05;;;1.00;;
15764;SDS011;7983;50.744;7.086;2022-09-09T05:26:17;2.13;;;0.80;;
15764;SDS011;7983;50.744;7.086;2022-09-09T05:28:47;3.13;;;0.77;;
15764;SDS011;7983;50.744;7.086;2022-09-09T05:31:14;1.85;;;0.90;;
15764;SDS011;7983;50.744;7.086;2022-09-09T05:33:42;2.25;;;0.77;;
15764;SDS011;7983;50.744;7.086;2022-09-09T05:36:13;3.30;;;0.93;;
15764;SDS011;7983;50.744;7.086;2022-09-09T05:38:47;1.88;;;0.93;;
15764;SDS011;7983;50.744;7.086;2022-09-09T05:41:16;1.98;;;0.90;;
15764;SDS011;7983;50.744;7.086;2022-09-09T05:43:45;3.63;;;1.00;;
15764;SDS011;7983;50.744;7.086;2022-09-09T05:46:15;2.03;;;0.80;;
15764;SDS011;7983;50.744;7.086;2022-09-09T05:48:48;4.45;;;1.02;;
15764;SDS011;7983;50.744;7.086;2022-09-09T05:51:27;2.88;;;1.00;;
15764;SDS011;7983;50.744;7.086;2022-09-09T05:53:57;2.85;;;0.85;;
15764;SDS011;7983;50.744;7.086;2022-09-09T05:56:34;1.92;;;0.80;;
15764;SDS011;7983;50.744;7.086;2022-09-09T05:59:10;4.53;;;0.90;;
15764;SDS011;7983;50.744;7.086;2022-09-09T06:01:38;4.05;;;1.00;;
15764;SDS011;7983;50.744;7.086;2022-09-09T06:04:07;3.20;;;1.20;;
15764;SDS011;7983;50.744;7.086;2022-09-09T06:06:36;3.05;;;1.10;;
15764;SDS011;7983;50.744;7.086;2022-09-09T06:09:05;3.05;;;1.33;;
15764;SDS011;7983;50.744;7.086;2022-09-09T06:11:34;2.78;;;1.00;;
15764;SDS011;7983;50.744;7.086;2022-09-09T06:14:01;6.70;;;1.10;;
15764;SDS011;7983;50.744;7.086;2022-09-09T06:16:28;1.60;;;0.90;;
15764;SDS011;7983;50.744;7.086;2022-09-09T06:18:55;2.15;;;0.90;;
15764;SDS011;7983;50.744;7.086;2022-09-09T06:21:31;2.42;;;1.10;;
15764;SDS011;7983;50.744;7.086;2022-09-09T06:23:59;1.77;;;1.05;;
15764;SDS011;7983;50.744;7.086;2022-09-09T06:26:26;2.03;;;0.77;;
15764;SDS011;7983;50.744;7.086;2022-09-09T06:28:55;1.42;;;0.98;;
15764;SDS011;7983;50.744;7.086;2022-09-09T06:31:23;2.22;;;1.00;;
15764;SDS011;7983;50.744;7.086;2022-09-09T06:33:55;2.60;;;1.20;;
15764;SDS011;7983;50.744;7.086;2022-09-09T06:38:48;2.25;;;0.98;;
15764;SDS011;7983;50.744;7.086;2022-09-09T06:41:15;2.65;;;0.88;;
15764;SDS011;7983;50.744;7.086;2022-09-09T06:43:46;2.75;;;1.20;;
15764;SDS011;7983;50.744;7.086;2022-09-09T06:46:12;2.38;;;0.85;;
15764;SDS011;7983;50.744;7.086;2022-09-09T06:48:40;2.42;;;0.95;;
15764;SDS011;7983;50.744;7.086;2022-09-09T06:51:19;2.55;;;1.02;;
15764;SDS011;7983;50.744;7.086;2022-09-09T06:53:52;2.53;;;1.00;;
15764;SDS011;7983;50.744;7.086;2022-09-09T06:56:28;3.10;;;1.38;;
15764;SDS011;7983;50.744;7.086;2022-09-09T06:59:02;3.50;;;1.17;;
15764;SDS011;7983;50.744;7.086;2022-09-09T07:01:31;3.00;;;1.00;;
15764;SDS011;7983;50.744;7.086;2022-09-09T07:03:58;2.88;;;1.05;;
15764;SDS011;7983;50.744;7.086;2022-09-09T07:06:25;3.45;;;1.00;;
15764;SDS011;7983;50.744;7.086;2022-09-09T07:08:53;1.42;;;0.80;;
15764;SDS011;7983;50.744;7.086;2022-09-09T07:11:27;3.47;;;1.13;;
15764;SDS011;7983;50.744;7.086;2022-09-09T07:13:57;3.05;;;0.75;;
15764;SDS011;7983;50.744;7.086;2022-09-09T07:16:24;2.55;;;1.10;;
15764;SDS011;7983;50.744;7.086;2022-09-09T07:18:53;2.83;;;0.98;;
15764;SDS011;7983;50.744;7.086;2022-09-09T07:21:28;3.95;;;1.40;;
15764;SDS011;7983;50.744;7.086;2022-09-09T07:23:57;2.88;;;1.52;;
15764;SDS011;7983;50.744;7.086;2022-09-09T07:26:24;3.97;;;1.25;;
15764;SDS011;7983;50.744;7.086;2022-09-09T07:28:51;5.03;;;1.63;;
15764;SDS011;7983;50.744;7.086;2022-09-09T07:31:19;2.33;;;0.95;;
15764;SDS011;7983;50.744;7.086;2022-09-09T07:33:47;3.22;;;1.10;;
15764;SDS011;7983;50.744;7.086;2022-09-09T07:36:14;4.07;;;1.27;;
15764;SDS011;7983;50.744;7.086;2022-09-09T07:38:51;2.75;;;1.00;;
15764;SDS011;7983;50.744;7.086;2022-09-09T07:41:23;2.90;;;1.10;;
15764;SDS011;7983;50.744;7.086;2022-09-09T07:43:51;2.08;;;1.10;;
15764;SDS011;7983;50.744;7.086;2022-09-09T07:46:19;5.03;;;1.35;;
15764;SDS011;7983;50.744;7.086;2022-09-09T07:48:46;4.22;;;1.45;;
15764;SDS011;7983;50.744;7.086;2022-09-09T07:51:18;5.28;;;1.60;;
15764;SDS011;7983;50.744;7.086;2022-09-09T07:53:47;3.17;;;1.23;;
15764;SDS011;7983;50.744;7.086;2022-09-09T07:56:16;3.45;;;1.50;;
15764;SDS011;7983;50.744;7.086;2022-09-09T07:58:46;4.55;;;1.50;;
15764;SDS011;7983;50.744;7.086;2022-09-09T08:01:16;4.00;;;1.27;;
15764;SDS011;7983;50.744;7.086;2022-09-09T08:03:44;3.35;;;1.10;;
15764;SDS011;7983;50.744;7.086;2022-09-09T08:06:13;4.63;;;1.30;;
15764;SDS011;7983;50.744;7.086;2022-09-09T08:08:39;3.05;;;1.20;;
15764;SDS011;7983;50.744;7.086;2022-09-09T08:13:42;3.53;;;0.98;;
15764;SDS011;7983;50.744;7.086;2022-09-09T08:16:15;4.25;;;1.13;;
15764;SDS011;7983;50.744;7.086;2022-09-09T08:18:45;3.55;;;1.20;;
15764;SDS011;7983;50.744;7.086;2022-09-09T08:21:16;3.42;;;0.85;;
15764;SDS011;7983;50.744;7.086;2022-09-09T08:23:46;2.92;;;1.02;;
15764;SDS011;7983;50.744;7.086;2022-09-09T08:26:17;2.95;;;1.10;;
15764;SDS011;7983;50.744;7.086;2022-09-09T08:28:46;4.68;;;1.20;;
15764;SDS011;7983;50.744;7.086;2022-09-09T08:31:17;4.05;;;1.10;;
15764;SDS011;7983;50.744;7.086;2022-09-09T08:33:44;6.53;;;1.25;;
15764;SDS011;7983;50.744;7.086;2022-09-09T08:36:18;2.70;;;1.00;;
15764;SDS011;7983;50.744;7.086;2022-09-09T08:38:49;2.13;;;1.10;;
15764;SDS011;7983;50.744;7.086;2022-09-09T08:41:27;3.53;;;1.00;;
15764;SDS011;7983;50.744;7.086;2022-09-09T08:44:00;4.75;;;1.00;;
15764;SDS011;7983;50.744;7.086;2022-09-09T08:46:39;3.78;;;1.20;;
15764;SDS011;7983;50.744;7.086;2022-09-09T08:55:38;3.08;;;0.95;;
15764;SDS011;7983;50.744;7.086;2022-09-09T08:58:26;2.33;;;1.00;;
15764;SDS011;7983;50.744;7.086;2022-09-09T09:06:09;2.97;;;1.00;;
15764;SDS011;7983;50.744;7.086;2022-09-09T09:11:48;2.35;;;0.93;;
15764;SDS011;7983;50.744;7.086;2022-09-09T09:14:22;3.70;;;1.10;;
15764;SDS011;7983;50.744;7.086;2022-09-09T09:16:58;3.90;;;1.15;;
15764;SDS011;7983;50.744;7.086;2022-09-09T09:19:27;2.50;;;1.02;;
15764;SDS011;7983;50.744;7.086;2022-09-09T09:27:24;4.07;;;1.10;;
15764;SDS011;7983;50.744;7.086;2022-09-09T09:29:58;4.18;;;1.08;;
15764;SDS011;7983;50.744;7.086;2022-09-09T09:32:26;3.67;;;1.50;;
15764;SDS011;7983;50.744;7.086;2022-09-09T09:34:56;2.90;;;0.95;;
15764;SDS011;7983;50.744;7.086;2022-09-09T09:37:26;3.08;;;1.00;;
15764;SDS011;7983;50.744;7.086;2022-09-09T09:39:55;2.85;;;1.08;;
15764;SDS011;7983;50.744;7.086;2022-09-09T09:42:25;5.70;;;1.08;;
15764;SDS011;7983;50.744;7.086;2022-09-09T09:44:52;3.85;;;0.90;;
15764;SDS011;7983;50.744;7.086;2022-09-09T09:47:19;2.45;;;0.80;;
15764;SDS011;7983;50.744;7.086;2022-09-09T09:49:56;2.25;;;0.82;;
15764;SDS011;7983;50.744;7.086;2022-09-09T09:52:28;2.88;;;0.85;;
15764;SDS011;7983;50.744;7.086;2022-09-09T09:55:02;2.28;;;0.85;;
15764;SDS011;7983;50.744;7.086;2022-09-09T09:57:30;2.58;;;0.77;;
15764;SDS011;7983;50.744;7.086;2022-09-09T10:02:54;4.38;;;0.88;;
15764;SDS011;7983;50.744;7.086;2022-09-09T10:05:23;3.30;;;0.85;;
15764;SDS011;7983;50.744;7.086;2022-09-09T10:18:38;1.33;;;0.60;;
15764;SDS011;7983;50.744;7.086;2022-09-09T10:21:25;3.72;;;0.80;;
15764;SDS011;7983;50.744;7.086;2022-09-09T10:27:45;3.60;;;1.00;;
15764;SDS011;7983;50.744;7.086;2022-09-09T10:33:04;2.35;;;0.90;;
15764;SDS011;7983;50.744;7.086;2022-09-09T10:43:40;1.77;;;0.80;;
15764;SDS011;7983;50.744;7.086;2022-09-09T10:46:52;2.55;;;0.90;;
15764;SDS011;7983;50.744;7.086;2022-09-09T10:55:15;3.08;;;0.95;;
15764;SDS011;7983;50.744;7.086;2022-09-09T10:57:47;2.35;;;1.00;;
15764;SDS011;7983;50.744;7.086;2022-09-09T11:00:24;2.63;;;0.90;;
15764;SDS011;7983;50.744;7.086;2022-09-09T11:02:58;3.58;;;0.95;;
15764;SDS011;7983;50.744;7.086;2022-09-09T11:05:41;2.10;;;0.80;;
15764;SDS011;7983;50.744;7.086;2022-09-09T11:08:20;3.88;;;1.00;;
15764;SDS011;7983;50.744;7.086;2022-09-09T11:11:03;3.50;;;0.68;;
15764;SDS011;7983;50.744;7.086;2022-09-09T11:21:50;2.15;;;0.80;;
15764;SDS011;7983;50.744;7.086;2022-09-09T11:24:21;3.00;;;0.88;;
15764;SDS011;7983;50.744;7.086;2022-09-09T11:26:53;3.72;;;0.80;;
15764;SDS011;7983;50.744;7.086;2022-09-09T11:29:32;3.05;;;0.90;;
15764;SDS011;7983;50.744;7.086;2022-09-09T11:38:27;3.05;;;1.00;;
15764;SDS011;7983;50.744;7.086;2022-09-09T11:41:04;3.22;;;0.80;;
15764;SDS011;7983;50.744;7.086;2022-09-09T11:46:05;2.72;;;0.95;;
15764;SDS011;7983;50.744;7.086;2022-09-09T11:48:33;2.58;;;0.90;;
15764;SDS011;7983;50.744;7.086;2022-09-09T11:53:35;1.83;;;0.65;;
15764;SDS011;7983;50.744;7.086;2022-09-09T11:56:23;1.40;;;0.65;;
15764;SDS011;7983;50.744;7.086;2022-09-09T11:59:06;2.70;;;0.70;;
15764;SDS011;7983;50.744;7.086;2022-09-09T12:01:54;1.77;;;0.70;;
15764;SDS011;7983;50.744;7.086;2022-09-09T12:05:22;1.63;;;0.60;;
15764;SDS011;7983;50.744;7.086;2022-09-09T12:07:41;2.30;;;0.73;;
15764;SDS011;7983;50.744;7.086;2022-09-09T12:10:33;3.97;;;0.95;;
15764;SDS011;7983;50.744;7.086;2022-09-09T12:13:20;2.75;;;1.08;;
15764;SDS011;7983;50.744;7.086;2022-09-09T12:15:49;1.50;;;1.00;;
15764;SDS011;7983;50.744;7.086;2022-09-09T12:18:23;2.53;;;0.73;;
15764;SDS011;7983;50.744;7.086;2022-09-09T12:20:54;1.30;;;0.60;;
15764;SDS011;7983;50.744;7.086;2022-09-09T12:31:26;3.70;;;1.25;;
15764;SDS011;7983;50.744;7.086;2022-09-09T12:34:20;1.55;;;0.75;;
15764;SDS011;7983;50.744;7.086;2022-09-09T12:37:16;1.60;;;0.73;;
15764;SDS011;7983;50.744;7.086;2022-09-09T12:40:25;3.15;;;0.80;;
15764;SDS011;7983;50.744;7.086;2022-09-09T12:42:53;2.58;;;0.80;;
15764;SDS011;7983;50.744;7.086;2022-09-09T12:45:26;3.05;;;0.65;;
15764;SDS011;7983;50.744;7.086;2022-09-09T12:50:29;1.70;;;0.80;;
15764;SDS011;7983;50.744;7.086;2022-09-09T12:53:07;2.58;;;0.90;;
15764;SDS011;7983;50.744;7.086;2022-09-09T12:55:48;1.90;;;0.90;;
15764;SDS011;7983;50.744;7.086;2022-09-09T12:58:19;2.13;;;0.90;;
15764;SDS011;7983;50.744;7.086;2022-09-09T13:00:49;2.63;;;0.82;;
15764;SDS011;7983;50.744;7.086;2022-09-09T13:03:21;3.38;;;1.20;;
15764;SDS011;7983;50.744;7.086;2022-09-09T13:05:47;2.88;;;0.85;;
15764;SDS011;7983;50.744;7.086;2022-09-09T13:08:13;1.48;;;0.82;;
15764;SDS011;7983;50.744;7.086;2022-09-09T13:14:13;2.88;;;0.80;;
15764;SDS011;7983;50.744;7.086;2022-09-09T13:18:56;3.88;;;0.90;;
15764;SDS011;7983;50.744;7.086;2022-09-09T13:21:37;2.42;;;0.60;;
15764;SDS011;7983;50.744;7.086;2022-09-09T13:24:07;1.88;;;0.55;;
15764;SDS011;7983;50.744;7.086;2022-09-09T13:27:03;3.08;;;0.70;;
15764;SDS011;7983;50.744;7.086;2022-09-09T13:29:31;2.17;;;0.65;;
15764;SDS011;7983;50.744;7.086;2022-09-09T13:32:15;2.35;;;0.90;;
15764;SDS011;7983;50.744;7.086;2022-09-09T13:39:51;2.92;;;0.70;;
15764;SDS011;7983;50.744;7.086;2022-09-09T13:42:28;1.35;;;0.45;;
15764;SDS011;7983;50.744;7.086;2022-09-09T13:44:56;1.77;;;0.55;;
15764;SDS011;7983;50.744;7.086;2022-09-09T13:47:34;1.08;;;0.32;;
15764;SDS011;7983;50.744;7.086;2022-09-09T13:52:57;1.15;;;0.30;;
15764;SDS011;7983;50.744;7.086;2022-09-09T13:55:24;2.28;;;0.60;;
15764;SDS011;7983;50.744;7.086;2022-09-09T13:57:58;1.83;;;0.40;;
15764;SDS011;7983;50.744;7.086;2022-09-09T14:00:26;0.60;;;0.38;;
15764;SDS011;7983;50.744;7.086;2022-09-09T14:02:55;1.50;;;0.50;;
15764;SDS011;7983;50.744;7.086;2022-09-09T14:05:23;1.23;;;0.50;;
15764;SDS011;7983;50.744;7.086;2022-09-09T14:07:49;1.17;;;0.40;;
15764;SDS011;7983;50.744;7.086;2022-09-09T14:10:15;1.27;;;0.40;;
15764;SDS011;7983;50.744;7.086;2022-09-09T14:12:51;0.65;;;0.45;;
15764;SDS011;7983;50.744;7.086;2022-09-09T14:15:26;0.70;;;0.40;;
15764;SDS011;7983;50.744;7.086;2022-09-09T14:17:54;1.10;;;0.40;;
15764;SDS011;7983;50.744;7.086;2022-09-09T14:20:23;1.38;;;0.60;;
15764;SDS011;7983;50.744;7.086;2022-09-09T14:22:51;1.77;;;0.60;;
15764;SDS011;7983;50.744;7.086;2022-09-09T14:25:19;1.35;;;0.40;;
15764;SDS011;7983;50.744;7.086;2022-09-09T14:27:45;1.23;;;0.40;;
15764;SDS011;7983;50.744;7.086;2022-09-09T14:30:11;0.68;;;0.40;;
15764;SDS011;7983;50.744;7.086;2022-09-09T14:32:39;1.27;;;0.20;;
15764;SDS011;7983;50.744;7.086;2022-09-09T14:35:05;1.30;;;0.40;;
15764;SDS011;7983;50.744;7.086;2022-09-09T14:37:33;1.73;;;0.85;;
15764;SDS011;7983;50.744;7.086;2022-09-09T14:39:59;1.10;;;0.40;;
15764;SDS011;7983;50.744;7.086;2022-09-09T14:42:28;0.47;;;0.40;;
15764;SDS011;7983;50.744;7.086;2022-09-09T14:44:55;1.42;;;0.40;;
15764;SDS011;7983;50.744;7.086;2022-09-09T14:47:23;1.30;;;0.60;;
15764;SDS011;7983;50.744;7.086;2022-09-09T14:49:48;0.85;;;0.43;;
15764;SDS011;7983;50.744;7.086;2022-09-09T14:52:16;1.65;;;0.65;;
15764;SDS011;7983;50.744;7.086;2022-09-09T14:54:45;1.08;;;0.40;;
15764;SDS011;7983;50.744;7.086;2022-09-09T14:57:14;1.55;;;0.40;;
15764;SDS011;7983;50.744;7.086;2022-09-09T14:59:42;0.90;;;0.22;;
15764;SDS011;7983;50.744;7.086;2022-09-09T15:02:08;1.20;;;0.50;;
15764;SDS011;7983;50.744;7.086;2022-09-09T15:04:36;0.77;;;0.30;;
15764;SDS011;7983;50.744;7.086;2022-09-09T15:07:02;1.55;;;0.50;;
15764;SDS011;7983;50.744;7.086;2022-09-09T15:09:28;1.75;;;0.52;;
15764;SDS011;7983;50.744;7.086;2022-09-09T15:11:54;0.85;;;0.40;;
15764;SDS011;7983;50.744;7.086;2022-09-09T15:14:19;0.63;;;0.50;;
15764;SDS011;7983;50.744;7.086;2022-09-09T15:16:47;2.30;;;0.77;;
15764;SDS011;7983;50.744;7.086;2022-09-09T15:19:13;1.45;;;0.50;;
15764;SDS011;7983;50.744;7.086;2022-09-09T15:21:38;0.57;;;0.32;;
15764;SDS011;7983;50.744;7.086;2022-09-09T15:24:04;0.60;;;0.40;;
15764;SDS011;7983;50.744;7.086;2022-09-09T15:26:33;1.17;;;0.47;;
15764;SDS011;7983;50.744;7.086;2022-09-09T15:29:00;0.82;;;0.40;;
15764;SDS011;7983;50.744;7.086;2022-09-09T15:31:30;0.82;;;0.52;;
15764;SDS011;7983;50.744;7.086;2022-09-09T15:34:06;1.33;;;0.50;;
15764;SDS011;7983;50.744;7.086;2022-09-09T15:36:35;2.40;;;0.57;;
15764;SDS011;7983;50.744;7.086;2022-09-09T15:39:12;1.73;;;0.65;;
15764;SDS011;7983;50.744;7.086;2022-09-09T15:41:44;1.77;;;0.50;;
15764;SDS011;7983;50.744;7.086;2022-09-09T15:44:11;1.08;;;0.60;;
15764;SDS011;7983;50.744;7.086;2022-09-09T15:47:11;2.00;;;0.73;;
15764;SDS011;7983;50.744;7.086;2022-09-09T15:49:30;1.48;;;0.70;;
15764;SDS011;7983;50.744;7.086;2022-09-09T15:51:56;1.75;;;0.73;;
15764;SDS011;7983;50.744;7.086;2022-09-09T15:54:24;1.42;;;0.50;;
15764;SDS011;7983;50.744;7.086;2022-09-09T15:56:53;2.65;;;0.63;;
15764;SDS011;7983;50.744;7.086;2022-09-09T15:59:24;1.17;;;0.50;;
15764;SDS011;7983;50.744;7.086;2022-09-09T16:01:55;1.38;;;0.52;;
15764;SDS011;7983;50.744;7.086;2022-09-09T16:04:22;1.80;;;0.70;;
15764;SDS011;7983;50.744;7.086;2022-09-09T16:06:59;1.65;;;0.60;;
15764;SDS011;7983;50.744;7.086;2022-09-09T16:09:31;1.27;;;0.63;;
15764;SDS011;7983;50.744;7.086;2022-09-09T16:11:59;1.30;;;0.60;;
15764;SDS011;7983;50.744;7.086;2022-09-09T16:14:31;1.02;;;0.50;;
15764;SDS011;7983;50.744;7.086;2022-09-09T16:17:00;2.35;;;0.60;;
15764;SDS011;7983;50.744;7.086;2022-09-09T16:19:27;1.10;;;0.60;;
15764;SDS011;7983;50.744;7.086;2022-09-09T16:21:55;1.23;;;0.68;;
15764;SDS011;7983;50.744;7.086;2022-09-09T16:24:23;2.10;;;0.73;;
15764;SDS011;7983;50.744;7.086;2022-09-09T16:26:53;0.82;;;0.52;;
15764;SDS011;7983;50.744;7.086;2022-09-09T16:29:19;2.47;;;0.65;;
15764;SDS011;7983;50.744;7.086;2022-09-09T16:31:48;0.80;;;0.40;;
15764;SDS011;7983;50.744;7.086;2022-09-09T16:34:17;2.15;;;0.70;;
15764;SDS011;7983;50.744;7.086;2022-09-09T16:36:46;1.50;;;0.70;;
15764;SDS011;7983;50.744;7.086;2022-09-09T16:39:14;1.33;;;0.63;;
15764;SDS011;7983;50.744;7.086;2022-09-09T16:41:42;1.65;;;0.90;;
15764;SDS011;7983;50.744;7.086;2022-09-09T16:44:15;1.90;;;0.98;;
15764;SDS011;7983;50.744;7.086;2022-09-09T16:46:43;1.67;;;0.60;;
15764;SDS011;7983;50.744;7.086;2022-09-09T16:49:10;0.93;;;0.65;;
15764;SDS011;7983;50.744;7.086;2022-09-09T16:51:39;1.48;;;0.70;;
15764;SDS011;7983;50.744;7.086;2022-09-09T16:54:11;1.50;;;0.77;;
15764;SDS011;7983;50.744;7.086;2022-09-09T16:56:39;1.23;;;0.80;;
15764;SDS011;7983;50.744;7.086;2022-09-09T16:59:11;2.33;;;0.80;;
15764;SDS011;7983;50.744;7.086;2022-09-09T17:01:39;1.80;;;0.70;;
15764;SDS011;7983;50.744;7.086;2022-09-09T17:04:09;1.70;;;0.80;;
15764;SDS011;7983;50.744;7.086;2022-09-09T17:06:41;2.35;;;0.82;;
15764;SDS011;7983;50.744;7.086;2022-09-09T17:09:10;1.75;;;1.00;;
15764;SDS011;7983;50.744;7.086;2022-09-09T17:11:39;4.78;;;2.00;;
15764;SDS011;7983;50.744;7.086;2022-09-09T17:14:06;3.00;;;1.63;;
15764;SDS011;7983;50.744;7.086;2022-09-09T17:16:34;4.45;;;3.42;;
15764;SDS011;7983;50.744;7.086;2022-09-09T17:19:03;2.90;;;2.10;;
15764;SDS011;7983;50.744;7.086;2022-09-09T17:21:29;3.28;;;1.98;;
15764;SDS011;7983;50.744;7.086;2022-09-09T17:23:56;2.90;;;1.40;;
15764;SDS011;7983;50.744;7.086;2022-09-09T17:26:23;1.38;;;1.00;;
15764;SDS011;7983;50.744;7.086;2022-09-09T17:28:54;2.08;;;1.02;;
15764;SDS011;7983;50.744;7.086;2022-09-09T17:31:23;2.00;;;0.90;;
15764;SDS011;7983;50.744;7.086;2022-09-09T17:33:50;1.90;;;0.80;;
15764;SDS011;7983;50.744;7.086;2022-09-09T17:36:19;1.95;;;0.85;;
15764;SDS011;7983;50.744;7.086;2022-09-09T17:38:47;2.38;;;0.95;;
15764;SDS011;7983;50.744;7.086;2022-09-09T17:41:19;1.27;;;0.77;;
15764;SDS011;7983;50.744;7.086;2022-09-09T17:43:46;1.77;;;0.80;;
15764;SDS011;7983;50.744;7.086;2022-09-09T17:46:16;1.45;;;0.80;;
15764;SDS011;7983;50.744;7.086;2022-09-09T17:48:50;2.08;;;0.68;;
15764;SDS011;7983;50.744;7.086;2022-09-09T17:51:21;1.60;;;0.70;;
15764;SDS011;7983;50.744;7.086;2022-09-09T17:53:50;1.83;;;0.80;;
15764;SDS011;7983;50.744;7.086;2022-09-09T17:56:18;3.83;;;0.90;;
15764;SDS011;7983;50.744;7.086;2022-09-09T17:58:45;1.05;;;0.75;;
15764;SDS011;7983;50.744;7.086;2022-09-09T18:01:15;1.50;;;0.70;;
15764;SDS011;7983;50.744;7.086;2022-09-09T18:03:48;1.20;;;0.95;;